createdAt,value
2022-08-02T00:03:25.189Z,1.30
2022-08-02T00:08:27.032Z,1.10
2022-08-02T00:13:28.938Z,1.25
2022-08-02T00:18:30.831Z,1.23
2022-08-02T00:23:32.955Z,1.33
2022-08-02T00:28:54.745Z,1.13
2022-08-02T00:34:26.818Z,1.30
2022-08-02T00:39:34.923Z,1.50
2022-08-02T00:44:37.682Z,1.45
2022-08-02T00:49:39.287Z,1.42
2022-08-02T00:54:41.621Z,1.30
2022-08-02T00:59:43.722Z,1.40
2022-08-02T01:04:45.544Z,1.40
2022-08-02T01:09:47.390Z,1.60
2022-08-02T01:14:51.661Z,1.33
2022-08-02T01:20:12.160Z,1.33
2022-08-02T01:26:12.373Z,1.35
2022-08-02T01:31:21.500Z,1.40
2022-08-02T01:36:24.679Z,1.38
2022-08-02T01:41:28.471Z,1.40
2022-08-02T01:46:33.040Z,1.60
2022-08-02T01:51:55.183Z,1.10
2022-08-02T01:56:58.374Z,1.58
2022-08-02T02:02:01.736Z,1.30
2022-08-02T02:07:04.493Z,1.60
2022-08-02T02:12:13.518Z,1.40
2022-08-02T02:18:10.826Z,1.50
2022-08-02T02:22:38.365Z,1.60
2022-08-02T02:27:50.982Z,1.48
2022-08-02T02:32:56.455Z,1.50
2022-08-02T02:38:02.855Z,1.70
2022-08-02T02:43:06.376Z,1.38
2022-08-02T02:48:09.861Z,1.50
2022-08-02T02:53:13.624Z,1.80
2022-08-02T02:58:16.115Z,1.65
2022-08-02T03:03:19.606Z,1.50
2022-08-02T03:08:23.884Z,1.55
2022-08-02T03:13:26.667Z,1.60
2022-08-02T03:18:37.142Z,1.73
2022-08-02T03:23:40.498Z,1.60
2022-08-02T03:28:43.627Z,1.58
2022-08-02T03:33:46.543Z,1.50
2022-08-02T03:38:50.058Z,1.98
2022-08-02T03:43:53.041Z,1.70
2022-08-02T03:48:56.881Z,2.30
2022-08-02T03:54:00.451Z,1.60
2022-08-02T03:59:13.910Z,1.63
2022-08-02T04:04:16.476Z,1.70
2022-08-02T04:09:18.223Z,1.73
2022-08-02T04:14:20.550Z,1.80
2022-08-02T04:19:32.789Z,1.58
2022-08-02T04:24:52.035Z,1.90
2022-08-02T04:29:56.211Z,1.80
2022-08-02T04:35:18.739Z,1.63
2022-08-02T04:40:20.217Z,1.80
2022-08-02T04:45:22.571Z,2.00
2022-08-02T04:50:24.499Z,1.65
2022-08-02T04:55:29.120Z,1.70
2022-08-02T05:00:32.871Z,1.98
2022-08-02T05:05:34.660Z,2.00
2022-08-02T05:10:36.330Z,1.90
2022-08-02T05:15:38.110Z,1.70
2022-08-02T05:20:39.735Z,1.80
2022-08-02T05:25:41.392Z,2.08
2022-08-02T05:30:43.212Z,2.03
2022-08-02T05:35:45.273Z,1.70
2022-08-02T05:40:54.966Z,1.90
2022-08-02T05:45:57.108Z,2.10
2022-08-02T05:51:37.590Z,2.20
2022-08-02T05:56:49.660Z,1.75
2022-08-02T06:01:57.063Z,1.88
2022-08-02T06:07:02.769Z,1.70
2022-08-02T06:12:06.989Z,1.70
2022-08-02T06:17:09.531Z,1.60
2022-08-02T06:22:33.904Z,1.90
2022-08-02T06:27:40.104Z,1.92
2022-08-02T06:32:44.936Z,1.80
2022-08-02T06:37:59.078Z,2.28
2022-08-02T06:43:17.661Z,1.63
2022-08-02T06:48:19.764Z,1.63
2022-08-02T06:53:21.785Z,1.60
2022-08-02T06:58:23.720Z,1.90
2022-08-02T07:03:25.732Z,2.08
2022-08-02T07:08:28.311Z,1.50
2022-08-02T07:13:30.338Z,1.80
2022-08-02T07:18:32.062Z,1.67
2022-08-02T07:23:34.059Z,1.58
2022-08-02T07:28:35.679Z,1.80
2022-08-02T07:33:40.276Z,1.48
2022-08-02T07:38:45.599Z,1.33
2022-08-02T07:43:47.516Z,1.63
2022-08-02T07:48:49.135Z,1.60
2022-08-02T07:54:02.541Z,1.73
2022-08-02T07:59:06.898Z,1.42
2022-08-02T08:04:08.554Z,1.40
2022-08-02T08:09:13.153Z,1.55
2022-08-02T08:14:17.013Z,1.23
2022-08-02T08:19:19.015Z,1.30
2022-08-02T08:24:20.879Z,1.50
2022-08-02T08:29:24.025Z,1.20
2022-08-02T08:34:27.234Z,1.40
2022-08-02T08:39:29.058Z,1.10
2022-08-02T08:44:30.789Z,1.33
2022-08-02T08:49:40.153Z,1.27
2022-08-02T08:54:56.924Z,1.00
2022-08-02T09:00:01.269Z,1.40
2022-08-02T09:05:03.188Z,1.13
2022-08-02T09:10:44.301Z,1.25
2022-08-02T09:15:55.359Z,0.82
2022-08-02T09:21:02.601Z,1.10
2022-08-02T09:26:15.088Z,1.27
2022-08-02T09:31:18.650Z,1.38
2022-08-02T09:36:21.373Z,1.38
2022-08-02T09:41:30.071Z,1.10
2022-08-02T09:46:38.052Z,1.35
2022-08-02T09:51:48.629Z,1.25
2022-08-02T09:56:55.939Z,1.13
2022-08-02T10:02:02.215Z,1.00
2022-08-02T10:07:06.530Z,1.40
2022-08-02T10:12:08.454Z,1.23
2022-08-02T10:17:10.706Z,1.10
2022-08-02T10:22:15.168Z,1.08
2022-08-02T10:27:22.690Z,1.30
2022-08-02T10:32:33.123Z,1.25
2022-08-02T10:37:39.470Z,1.15
2022-08-02T10:42:53.898Z,1.13
2022-08-02T10:48:10.192Z,1.33
2022-08-02T10:53:31.501Z,0.90
2022-08-02T10:58:34.098Z,1.00
2022-08-02T11:03:40.283Z,1.05
2022-08-02T11:08:42.125Z,0.80
2022-08-02T11:14:08.750Z,0.80
2022-08-02T11:19:12.171Z,0.80
2022-08-02T11:24:28.775Z,0.90
2022-08-02T11:29:33.508Z,0.80
2022-08-02T11:34:42.489Z,0.77
2022-08-02T11:39:51.587Z,0.80
2022-08-02T11:44:53.221Z,0.90
2022-08-02T11:50:08.829Z,0.80
2022-08-02T11:55:11.606Z,0.80
2022-08-02T12:00:19.530Z,0.90
2022-08-02T12:05:44.712Z,0.93
2022-08-02T12:10:50.462Z,0.90
2022-08-02T12:15:52.537Z,0.98
2022-08-02T12:20:54.318Z,0.77
2022-08-02T12:26:04.912Z,0.90
2022-08-02T12:31:11.306Z,0.82
2022-08-02T12:36:21.302Z,0.80
2022-08-02T12:41:31.568Z,0.65
2022-08-02T12:46:35.705Z,0.80
2022-08-02T12:51:51.412Z,0.90
2022-08-02T12:57:14.514Z,0.50
2022-08-02T13:02:17.710Z,0.65
2022-08-02T13:07:19.900Z,0.88
2022-08-02T13:12:21.608Z,0.90
2022-08-02T13:17:23.795Z,0.60
2022-08-02T13:22:26.031Z,0.50
2022-08-02T13:27:32.469Z,0.80
2022-08-02T13:32:34.384Z,0.40
2022-08-02T13:37:40.244Z,0.85
2022-08-02T13:42:42.259Z,0.60
2022-08-02T13:48:03.388Z,0.50
2022-08-02T13:53:06.802Z,0.57
2022-08-02T13:58:09.313Z,0.70
2022-08-02T14:03:12.278Z,0.60
2022-08-02T14:08:16.802Z,0.60
2022-08-02T14:13:19.514Z,0.55
2022-08-02T14:18:21.187Z,0.60
2022-08-02T14:23:50.017Z,0.50
2022-08-02T14:28:45.083Z,0.68
2022-08-02T14:33:51.784Z,0.70
2022-08-02T14:38:53.406Z,0.68
2022-08-02T14:44:05.277Z,0.60
2022-08-02T14:49:09.140Z,1.23
2022-08-02T14:54:11.906Z,0.55
2022-08-02T14:59:16.355Z,0.75
2022-08-02T15:04:18.157Z,0.60
2022-08-02T15:09:20.164Z,0.52
2022-08-02T15:14:26.367Z,0.68
2022-08-02T15:19:53.013Z,0.70
2022-08-02T15:24:51.213Z,0.70
2022-08-02T15:30:00.004Z,0.70
2022-08-02T15:35:06.115Z,0.60
2022-08-02T15:40:13.719Z,0.70
2022-08-02T15:45:22.407Z,0.60
2022-08-02T15:50:24.101Z,0.68
2022-08-02T15:55:26.362Z,0.63
2022-08-02T16:00:30.082Z,0.70
2022-08-02T16:05:31.754Z,0.60
2022-08-02T16:10:34.166Z,0.65
2022-08-02T16:15:35.818Z,0.55
2022-08-02T16:20:37.397Z,0.70
2022-08-02T16:25:41.971Z,0.80
2022-08-02T16:30:54.215Z,0.63
2022-08-02T16:36:05.680Z,0.43
2022-08-02T16:41:07.392Z,0.50
2022-08-02T16:46:09.965Z,0.50
2022-08-02T16:51:13.666Z,0.70
2022-08-02T16:56:15.886Z,0.60
2022-08-02T17:01:18.582Z,0.70
2022-08-02T17:06:28.993Z,0.55
2022-08-02T17:11:30.889Z,0.50
2022-08-02T17:16:32.953Z,0.80
2022-08-02T17:21:34.759Z,0.30
2022-08-02T17:26:37.674Z,0.80
2022-08-02T17:31:43.683Z,0.50
2022-08-02T17:36:49.640Z,0.60
2022-08-02T17:41:51.974Z,0.85
2022-08-02T17:46:54.122Z,0.50
2022-08-02T17:52:48.661Z,0.70
2022-08-02T17:57:19.836Z,0.77
2022-08-02T18:02:21.479Z,0.63
2022-08-02T18:07:25.053Z,0.60
2022-08-02T18:12:27.041Z,0.57
2022-08-02T18:17:29.651Z,0.75
2022-08-02T18:22:31.729Z,0.68
2022-08-02T18:27:33.445Z,0.60
2022-08-02T18:33:53.761Z,0.70
2022-08-02T18:38:03.581Z,0.80
2022-08-02T18:43:25.143Z,0.80
2022-08-02T18:48:30.073Z,0.90
2022-08-02T18:53:41.594Z,0.60
2022-08-02T18:58:44.582Z,0.70
2022-08-02T19:03:49.210Z,0.60
2022-08-02T19:09:04.891Z,0.70
2022-08-02T19:14:24.280Z,0.90
2022-08-02T19:19:29.837Z,0.90
2022-08-02T19:24:31.530Z,0.75
2022-08-02T19:29:43.025Z,0.65
2022-08-02T19:34:52.257Z,0.90
2022-08-02T19:39:54.232Z,0.70
2022-08-02T19:44:56.794Z,0.70
2022-08-02T19:49:59.058Z,0.65
2022-08-02T19:55:58.398Z,0.50
2022-08-02T20:00:27.446Z,0.60
2022-08-02T20:05:29.166Z,0.60
2022-08-02T20:10:33.444Z,0.60
2022-08-02T20:15:56.248Z,0.50
2022-08-02T20:20:58.339Z,0.50
2022-08-02T20:26:00.005Z,0.60
2022-08-02T20:31:08.884Z,0.88
2022-08-02T20:36:10.704Z,0.77
2022-08-02T20:41:12.344Z,0.73
2022-08-02T20:46:24.781Z,0.80
2022-08-02T20:51:33.395Z,0.60
2022-08-02T20:56:35.590Z,0.60
2022-08-02T21:01:40.083Z,0.80
2022-08-02T21:07:01.747Z,0.65
2022-08-02T21:12:05.761Z,0.80
2022-08-02T21:17:17.991Z,0.77
2022-08-02T21:22:28.285Z,0.60
2022-08-02T21:27:52.650Z,0.60
2022-08-02T21:32:54.930Z,0.70
2022-08-02T21:37:58.687Z,0.63
2022-08-02T21:43:01.736Z,0.80
2022-08-02T21:48:04.632Z,0.88
2022-08-02T21:53:06.276Z,1.05
2022-08-02T21:58:15.185Z,0.70
2022-08-02T22:03:24.404Z,1.05
2022-08-02T22:08:31.809Z,0.75
2022-08-02T22:13:38.714Z,0.70
2022-08-02T22:18:51.402Z,0.80
2022-08-02T22:23:55.963Z,0.90
2022-08-02T22:28:59.645Z,0.85
2022-08-02T22:34:07.949Z,1.10
2022-08-02T22:39:29.091Z,1.00
2022-08-02T22:44:30.853Z,1.00
2022-08-02T22:49:38.015Z,0.90
2022-08-02T22:54:54.764Z,0.90
2022-08-02T22:59:56.904Z,0.90
2022-08-02T23:04:59.914Z,0.95
2022-08-02T23:10:03.764Z,1.13
2022-08-02T23:15:06.129Z,1.10
2022-08-02T23:20:11.776Z,1.02
2022-08-02T23:25:14.313Z,1.20
2022-08-02T23:30:16.717Z,1.10
2022-08-02T23:35:18.412Z,1.30
2022-08-02T23:40:39.309Z,1.33
2022-08-02T23:45:45.722Z,1.25
2022-08-02T23:50:48.082Z,1.40
2022-08-02T23:55:49.860Z,1.55
